Ana Sayfa
METAR-TAF:

METAR-TAF

Havaalanları :

Afyon Havalimanı

Afyon, Türkiye

Enlem: 38-45N, Boylam: 030-32E, yükseklik: 1034 m

METAR: eksik

Saat: 14:31 (11:31 UTC)

Tahmin

Rapor saat 07:40 UTC de 3 saat ve 51 dakika önce yapıldı.
Ayın 21'si saat 09 UTC'den ayın 21'si saat 18 UTC'ye kadar geçerli Tahmin
Rüzgar kuzey/kuzeydoğudan 8 kt
Görüş mesafesi 10 km veya daha fazla
1500 m altında bulut yok ve kümülonimbus yok
Geçici
ayın 21'si saat 12 UTC'den ayın 21'si saat 16 UTC'ye kadar
Rüzgar kuzeydoğudan 15 kt ve 25 kt'a kadar ani rüzgarlar

TAF: LTAH 210740Z 2109/2118 02008KT CAVOK TEMPO 2112/2116 04015G25KT

4.000'den fazla havaalanı için hava durumu gözlemleri ve tahminleri (METAR ve TAF raporları).

Kullanılabilir istasyonlar harita üzerinde sarı ve kırmızı noktalarla gösterilir.

İstasyonun adını görmek için fareyi noktanın üzerinde gezdirin.

Sonrasında hava gözlem ve tahminlerini görmek için tıklayın.

Haritayı değiştirmek için: yaklaştırmak için siyah artı işaretli yeşil düğmeye ve uzaklaştırmak için de eksi işaretli düğmeye hızla tıklayın; bitişik haritalar için yeşil okları kullanın.


METAR-TAF: